sensor_id;sensor_type;location;lat;lon;timestamp;pressure;altitude;pressure_sealevel;temperature;humidity
52469;BME280;38381;53.688;10.776;2023-05-12T00:03:23;101441.09;;;14.63;62.22
52469;BME280;38381;53.688;10.776;2023-05-12T00:08:23;101436.75;;;14.65;62.64
52469;BME280;38381;53.688;10.776;2023-05-12T00:13:24;101439.38;;;14.62;62.35
52469;BME280;38381;53.688;10.776;2023-05-12T00:18:25;101445.44;;;14.66;61.93
52469;BME280;38381;53.688;10.776;2023-05-12T00:23:27;101444.59;;;14.75;61.63
52469;BME280;38381;53.688;10.776;2023-05-12T00:28:28;101439.34;;;14.78;61.29
52469;BME280;38381;53.688;10.776;2023-05-12T00:33:29;101447.16;;;14.70;61.67
52469;BME280;38381;53.688;10.776;2023-05-12T00:38:29;101446.34;;;14.79;61.60
52469;BME280;38381;53.688;10.776;2023-05-12T00:43:30;101451.53;;;14.76;61.65
52469;BME280;38381;53.688;10.776;2023-05-12T00:48:31;101455.88;;;14.78;61.72
52469;BME280;38381;53.688;10.776;2023-05-12T00:53:32;101442.84;;;14.80;62.01
52469;BME280;38381;53.688;10.776;2023-05-12T00:58:32;101452.41;;;14.75;62.31
52469;BME280;38381;53.688;10.776;2023-05-12T01:03:33;101453.28;;;14.64;62.15
52469;BME280;38381;53.688;10.776;2023-05-12T01:08:33;101460.25;;;14.78;62.28
52469;BME280;38381;53.688;10.776;2023-05-12T01:13:34;101461.97;;;14.82;62.08
52469;BME280;38381;53.688;10.776;2023-05-12T01:18:37;101470.69;;;14.78;62.36
52469;BME280;38381;53.688;10.776;2023-05-12T01:23:42;101472.44;;;14.82;62.28
52469;BME280;38381;53.688;10.776;2023-05-12T01:28:44;101475.94;;;14.81;62.55
52469;BME280;38381;53.688;10.776;2023-05-12T01:33:44;101466.34;;;14.77;63.21
52469;BME280;38381;53.688;10.776;2023-05-12T01:38:45;101475.91;;;14.78;63.32
52469;BME280;38381;53.688;10.776;2023-05-12T01:43:45;101480.28;;;14.66;63.34
52469;BME280;38381;53.688;10.776;2023-05-12T01:48:46;101481.97;;;14.66;63.55
52469;BME280;38381;53.688;10.776;2023-05-12T01:53:46;101479.38;;;14.63;63.73
52469;BME280;38381;53.688;10.776;2023-05-12T01:58:47;101491.59;;;14.68;63.67
52469;BME280;38381;53.688;10.776;2023-05-12T02:03:47;101495.06;;;14.74;63.80
52469;BME280;38381;53.688;10.776;2023-05-12T02:08:48;101497.69;;;14.71;63.56
52469;BME280;38381;53.688;10.776;2023-05-12T02:13:48;101496.78;;;14.72;63.45
52469;BME280;38381;53.688;10.776;2023-05-12T02:18:49;101501.16;;;14.60;63.96
52469;BME280;38381;53.688;10.776;2023-05-12T02:23:49;101510.66;;;14.55;64.23
52469;BME280;38381;53.688;10.776;2023-05-12T02:28:50;101508.03;;;14.55;63.77
52469;BME280;38381;53.688;10.776;2023-05-12T02:33:50;101506.34;;;14.57;63.65
52469;BME280;38381;53.688;10.776;2023-05-12T02:38:50;101507.16;;;14.53;63.87
52469;BME280;38381;53.688;10.776;2023-05-12T02:43:51;101503.69;;;14.48;64.08
52469;BME280;38381;53.688;10.776;2023-05-12T02:48:51;101505.44;;;14.49;63.83
52469;BME280;38381;53.688;10.776;2023-05-12T02:53:52;101506.28;;;14.49;63.98
52469;BME280;38381;53.688;10.776;2023-05-12T02:58:52;101501.06;;;14.42;64.25
52469;BME280;38381;53.688;10.776;2023-05-12T03:03:53;101501.06;;;14.42;63.93
52469;BME280;38381;53.688;10.776;2023-05-12T03:08:53;101508.88;;;14.39;64.00
52469;BME280;38381;53.688;10.776;2023-05-12T03:13:55;101502.81;;;14.40;63.91
52469;BME280;38381;53.688;10.776;2023-05-12T03:18:55;101504.53;;;14.39;63.57
52469;BME280;38381;53.688;10.776;2023-05-12T03:23:55;101513.22;;;14.35;64.38
52469;BME280;38381;53.688;10.776;2023-05-12T03:28:56;101520.13;;;14.27;65.52
52469;BME280;38381;53.688;10.776;2023-05-12T03:33:57;101528.84;;;14.24;66.03
52469;BME280;38381;53.688;10.776;2023-05-12T03:38:57;101526.22;;;14.20;66.52
52469;BME280;38381;53.688;10.776;2023-05-12T03:43:58;101523.56;;;14.11;66.92
52469;BME280;38381;53.688;10.776;2023-05-12T03:48:59;101530.53;;;14.10;66.91
52469;BME280;38381;53.688;10.776;2023-05-12T03:53:59;101527.03;;;14.13;67.46
52469;BME280;38381;53.688;10.776;2023-05-12T03:59:00;101539.22;;;14.07;68.36
52469;BME280;38381;53.688;10.776;2023-05-12T04:04:00;101541.81;;;14.03;68.26
52469;BME280;38381;53.688;10.776;2023-05-12T04:09:00;101538.31;;;14.04;68.13
52469;BME280;38381;53.688;10.776;2023-05-12T04:14:01;101545.28;;;14.05;67.47
52469;BME280;38381;53.688;10.776;2023-05-12T04:19:02;101553.97;;;14.01;67.92
52469;BME280;38381;53.688;10.776;2023-05-12T04:24:02;101548.75;;;14.01;67.19
52469;BME280;38381;53.688;10.776;2023-05-12T04:29:03;101560.91;;;13.99;66.83
52469;BME280;38381;53.688;10.776;2023-05-12T04:34:03;101560.91;;;13.99;65.90
52469;BME280;38381;53.688;10.776;2023-05-12T04:39:04;101566.13;;;14.00;65.55
52469;BME280;38381;53.688;10.776;2023-05-12T04:44:04;101568.75;;;14.03;65.81
52469;BME280;38381;53.688;10.776;2023-05-12T04:49:05;101573.97;;;14.03;65.60
52469;BME280;38381;53.688;10.776;2023-05-12T04:54:05;101577.50;;;14.13;64.81
52469;BME280;38381;53.688;10.776;2023-05-12T04:59:06;101581.00;;;14.15;64.71
52469;BME280;38381;53.688;10.776;2023-05-12T05:04:07;101588.81;;;14.18;65.15
52469;BME280;38381;53.688;10.776;2023-05-12T05:09:07;101588.84;;;14.26;65.41
52469;BME280;38381;53.688;10.776;2023-05-12T05:14:09;101597.59;;;14.29;65.34
52469;BME280;38381;53.688;10.776;2023-05-12T05:19:10;101603.69;;;14.39;64.96
52469;BME280;38381;53.688;10.776;2023-05-12T05:24:12;101605.44;;;14.43;64.02
52469;BME280;38381;53.688;10.776;2023-05-12T05:29:14;101610.66;;;14.40;63.95
52469;BME280;38381;53.688;10.776;2023-05-12T05:34:14;101614.22;;;14.55;63.87
52469;BME280;38381;53.688;10.776;2023-05-12T05:39:15;101621.22;;;14.68;62.94
52469;BME280;38381;53.688;10.776;2023-05-12T05:44:16;101616.94;;;14.81;61.46
52469;BME280;38381;53.688;10.776;2023-05-12T05:49:17;101623.94;;;14.91;61.82
52469;BME280;38381;53.688;10.776;2023-05-12T05:54:17;101623.06;;;15.03;60.79
52469;BME280;38381;53.688;10.776;2023-05-12T05:59:18;101624.84;;;15.12;60.30
52469;BME280;38381;53.688;10.776;2023-05-12T06:04:18;101630.94;;;15.21;60.10
52469;BME280;38381;53.688;10.776;2023-05-12T06:09:19;101638.81;;;15.26;59.96
52469;BME280;38381;53.688;10.776;2023-05-12T06:14:19;101640.53;;;15.35;59.62
52469;BME280;38381;53.688;10.776;2023-05-12T06:19:20;101645.78;;;15.59;60.51
52469;BME280;38381;53.688;10.776;2023-05-12T06:24:20;101645.81;;;15.79;59.52
52469;BME280;38381;53.688;10.776;2023-05-12T06:29:21;101658.88;;;15.85;58.78
52469;BME280;38381;53.688;10.776;2023-05-12T06:34:22;101664.09;;;15.76;59.46
52469;BME280;38381;53.688;10.776;2023-05-12T06:39:22;101672.81;;;15.86;59.41
52469;BME280;38381;53.688;10.776;2023-05-12T06:44:23;101673.66;;;15.97;58.54
52469;BME280;38381;53.688;10.776;2023-05-12T06:49:29;101680.63;;;16.15;58.60
52469;BME280;38381;53.688;10.776;2023-05-12T06:54:30;101673.59;;;16.36;58.50
52469;BME280;38381;53.688;10.776;2023-05-12T06:59:31;101680.44;;;16.69;58.02
52469;BME280;38381;53.688;10.776;2023-05-12T07:04:31;101671.72;;;16.84;58.86
52469;BME280;38381;53.688;10.776;2023-05-12T07:09:32;101674.94;;;17.24;59.70
52469;BME280;38381;53.688;10.776;2023-05-12T07:14:32;101670.28;;;17.66;59.00
52469;BME280;38381;53.688;10.776;2023-05-12T07:19:33;101670.75;;;18.13;59.18
52469;BME280;38381;53.688;10.776;2023-05-12T07:24:37;101674.44;;;18.73;57.00
52469;BME280;38381;53.688;10.776;2023-05-12T07:29:38;101669.78;;;18.96;54.99
52469;BME280;38381;53.688;10.776;2023-05-12T07:34:39;101674.00;;;19.06;54.53
52469;BME280;38381;53.688;10.776;2023-05-12T07:39:39;101679.09;;;19.19;55.75
52469;BME280;38381;53.688;10.776;2023-05-12T07:44:40;101681.97;;;19.03;53.84
52469;BME280;38381;53.688;10.776;2023-05-12T07:49:40;101681.59;;;19.28;56.11
52469;BME280;38381;53.688;10.776;2023-05-12T07:54:41;101686.47;;;19.53;49.97
52469;BME280;38381;53.688;10.776;2023-05-12T07:59:41;101679.00;;;19.81;48.29
52469;BME280;38381;53.688;10.776;2023-05-12T08:04:42;101680.31;;;20.08;46.99
52469;BME280;38381;53.688;10.776;2023-05-12T08:09:42;101678.38;;;20.16;44.75
52469;BME280;38381;53.688;10.776;2023-05-12T08:14:43;101676.34;;;20.30;45.52
52469;BME280;38381;53.688;10.776;2023-05-12T08:19:43;101690.78;;;20.56;46.19
52469;BME280;38381;53.688;10.776;2023-05-12T08:24:45;101676.44;;;20.71;46.72
52469;BME280;38381;53.688;10.776;2023-05-12T08:29:45;101682.13;;;20.93;46.53
52469;BME280;38381;53.688;10.776;2023-05-12T08:34:46;101674.44;;;21.23;44.94
52469;BME280;38381;53.688;10.776;2023-05-12T08:39:46;101673.44;;;21.27;42.48
52469;BME280;38381;53.688;10.776;2023-05-12T08:44:47;101679.22;;;21.43;41.78
52469;BME280;38381;53.688;10.776;2023-05-12T08:49:57;101688.81;;;21.47;41.26
52469;BME280;38381;53.688;10.776;2023-05-12T08:54:59;101679.00;;;21.54;40.12
52469;BME280;38381;53.688;10.776;2023-05-12T09:00:01;101693.19;;;21.49;38.55
52469;BME280;38381;53.688;10.776;2023-05-12T09:05:02;101682.50;;;21.54;38.07
52469;BME280;38381;53.688;10.776;2023-05-12T09:10:04;101683.16;;;21.64;37.67
52469;BME280;38381;53.688;10.776;2023-05-12T09:15:07;101678.56;;;21.70;38.09
52469;BME280;38381;53.688;10.776;2023-05-12T09:20:11;101680.13;;;21.78;37.18
52469;BME280;38381;53.688;10.776;2023-05-12T09:25:19;101685.56;;;21.72;36.16
52469;BME280;38381;53.688;10.776;2023-05-12T09:30:30;101678.38;;;21.78;36.63
52469;BME280;38381;53.688;10.776;2023-05-12T09:35:31;101685.81;;;21.97;36.18
52469;BME280;38381;53.688;10.776;2023-05-12T09:40:31;101688.31;;;22.03;36.54
52469;BME280;38381;53.688;10.776;2023-05-12T09:45:35;101678.34;;;22.13;36.25
52469;BME280;38381;53.688;10.776;2023-05-12T09:50:48;101686.31;;;22.11;35.22
52469;BME280;38381;53.688;10.776;2023-05-12T09:55:49;101674.84;;;22.12;36.62
52469;BME280;38381;53.688;10.776;2023-05-12T10:00:51;101673.66;;;22.24;38.16
52469;BME280;38381;53.688;10.776;2023-05-12T10:05:56;101676.16;;;22.30;38.02
52469;BME280;38381;53.688;10.776;2023-05-12T10:10:58;101675.03;;;22.37;35.40
52469;BME280;38381;53.688;10.776;2023-05-12T10:16:01;101681.22;;;22.67;38.01
52469;BME280;38381;53.688;10.776;2023-05-12T10:21:02;101676.78;;;22.38;36.84
52469;BME280;38381;53.688;10.776;2023-05-12T10:26:03;101677.16;;;22.24;37.04
52469;BME280;38381;53.688;10.776;2023-05-12T10:31:08;101676.59;;;22.46;36.25
52469;BME280;38381;53.688;10.776;2023-05-12T10:36:16;101673.47;;;22.32;36.78
52469;BME280;38381;53.688;10.776;2023-05-12T10:41:31;101671.50;;;22.38;36.64
52469;BME280;38381;53.688;10.776;2023-05-12T10:46:32;101675.59;;;22.50;36.87
52469;BME280;38381;53.688;10.776;2023-05-12T10:51:45;101674.97;;;22.40;34.95
52469;BME280;38381;53.688;10.776;2023-05-12T10:56:46;101674.00;;;22.43;36.05
52469;BME280;38381;53.688;10.776;2023-05-12T11:01:57;101682.47;;;22.24;36.19
52469;BME280;38381;53.688;10.776;2023-05-12T11:06:57;101676.31;;;22.22;35.67
52469;BME280;38381;53.688;10.776;2023-05-12T11:12:01;101684.88;;;21.99;35.93
52469;BME280;38381;53.688;10.776;2023-05-12T11:17:01;101673.28;;;22.05;36.44
52469;BME280;38381;53.688;10.776;2023-05-12T11:22:06;101672.13;;;22.15;35.37
52469;BME280;38381;53.688;10.776;2023-05-12T11:27:15;101672.19;;;22.12;38.41
52469;BME280;38381;53.688;10.776;2023-05-12T11:32:16;101671.81;;;22.27;40.08
52469;BME280;38381;53.688;10.776;2023-05-12T11:37:16;101667.53;;;22.23;38.91
52469;BME280;38381;53.688;10.776;2023-05-12T11:42:20;101667.38;;;22.28;41.56
52469;BME280;38381;53.688;10.776;2023-05-12T11:47:20;101676.44;;;22.50;41.98
52469;BME280;38381;53.688;10.776;2023-05-12T11:52:22;101678.00;;;22.26;42.20
52469;BME280;38381;53.688;10.776;2023-05-12T11:57:27;101679.75;;;22.27;42.88
52469;BME280;38381;53.688;10.776;2023-05-12T12:02:28;101687.44;;;22.35;43.99
52469;BME280;38381;53.688;10.776;2023-05-12T12:07:32;101683.38;;;22.23;43.48
52469;BME280;38381;53.688;10.776;2023-05-12T12:12:33;101697.63;;;22.16;42.58
52469;BME280;38381;53.688;10.776;2023-05-12T12:17:33;101690.28;;;21.95;43.07
52469;BME280;38381;53.688;10.776;2023-05-12T12:22:34;101700.34;;;22.13;42.97
52469;BME280;38381;53.688;10.776;2023-05-12T12:27:34;101693.84;;;22.26;40.82
52469;BME280;38381;53.688;10.776;2023-05-12T12:32:34;101689.09;;;22.39;41.63
52469;BME280;38381;53.688;10.776;2023-05-12T12:37:35;101689.50;;;22.25;41.54
52469;BME280;38381;53.688;10.776;2023-05-12T12:42:37;101690.31;;;22.27;39.79
52469;BME280;38381;53.688;10.776;2023-05-12T12:47:39;101689.97;;;22.40;40.06
52469;BME280;38381;53.688;10.776;2023-05-12T12:52:40;101696.66;;;22.19;40.93
52469;BME280;38381;53.688;10.776;2023-05-12T12:57:40;101694.25;;;22.44;42.96
52469;BME280;38381;53.688;10.776;2023-05-12T13:02:40;101690.84;;;22.40;41.81
52469;BME280;38381;53.688;10.776;2023-05-12T13:07:41;101687.50;;;22.34;41.53
52469;BME280;38381;53.688;10.776;2023-05-12T13:12:42;101685.03;;;22.27;40.97
52469;BME280;38381;53.688;10.776;2023-05-12T13:17:42;101688.66;;;22.55;42.13
52469;BME280;38381;53.688;10.776;2023-05-12T13:22:44;101681.81;;;22.47;43.31
52469;BME280;38381;53.688;10.776;2023-05-12T13:27:44;101675.41;;;22.56;43.27
52469;BME280;38381;53.688;10.776;2023-05-12T13:32:45;101674.75;;;22.48;40.84
52469;BME280;38381;53.688;10.776;2023-05-12T13:37:46;101673.94;;;22.46;40.29
52469;BME280;38381;53.688;10.776;2023-05-12T13:42:46;101678.06;;;22.56;41.95
52469;BME280;38381;53.688;10.776;2023-05-12T13:47:47;101677.47;;;22.45;40.92
52469;BME280;38381;53.688;10.776;2023-05-12T13:52:47;101670.84;;;22.30;41.11
52469;BME280;38381;53.688;10.776;2023-05-12T13:57:48;101674.53;;;22.24;40.36
52469;BME280;38381;53.688;10.776;2023-05-12T14:02:48;101668.69;;;22.12;40.39
52469;BME280;38381;53.688;10.776;2023-05-12T14:07:49;101667.59;;;22.19;40.11
52469;BME280;38381;53.688;10.776;2023-05-12T14:12:49;101664.19;;;22.15;40.64
52469;BME280;38381;53.688;10.776;2023-05-12T14:17:50;101659.94;;;22.09;39.64
52469;BME280;38381;53.688;10.776;2023-05-12T14:22:50;101675.09;;;22.03;40.27
52469;BME280;38381;53.688;10.776;2023-05-12T14:27:51;101669.47;;;22.15;40.92
52469;BME280;38381;53.688;10.776;2023-05-12T14:32:51;101679.63;;;21.98;40.79
52469;BME280;38381;53.688;10.776;2023-05-12T14:37:52;101683.09;;;22.00;40.49
52469;BME280;38381;53.688;10.776;2023-05-12T14:42:53;101667.81;;;22.11;40.38
52469;BME280;38381;53.688;10.776;2023-05-12T14:47:54;101680.28;;;22.06;40.10
52469;BME280;38381;53.688;10.776;2023-05-12T14:52:54;101677.75;;;22.03;39.85
52469;BME280;38381;53.688;10.776;2023-05-12T14:57:55;101689.44;;;21.93;40.23
52469;BME280;38381;53.688;10.776;2023-05-12T15:02:55;101673.13;;;22.11;40.52
52469;BME280;38381;53.688;10.776;2023-05-12T15:07:56;101689.13;;;22.05;40.67
52469;BME280;38381;53.688;10.776;2023-05-12T15:12:57;101681.53;;;21.93;40.23
52469;BME280;38381;53.688;10.776;2023-05-12T15:17:57;101684.72;;;22.05;40.12
52469;BME280;38381;53.688;10.776;2023-05-12T15:22:58;101682.19;;;22.01;40.03
52469;BME280;38381;53.688;10.776;2023-05-12T15:27:59;101673.00;;;22.14;39.75
52469;BME280;38381;53.688;10.776;2023-05-12T15:33:00;101677.59;;;22.07;39.41
52469;BME280;38381;53.688;10.776;2023-05-12T15:38:02;101671.84;;;21.92;39.17
52469;BME280;38381;53.688;10.776;2023-05-12T15:43:03;101669.97;;;21.97;40.51
52469;BME280;38381;53.688;10.776;2023-05-12T15:48:04;101668.66;;;21.80;40.35
52469;BME280;38381;53.688;10.776;2023-05-12T15:53:05;101672.28;;;21.76;39.96
52469;BME280;38381;53.688;10.776;2023-05-12T15:58:06;101663.69;;;21.68;40.71
52469;BME280;38381;53.688;10.776;2023-05-12T16:03:07;101666.50;;;21.60;41.22
52469;BME280;38381;53.688;10.776;2023-05-12T16:08:08;101668.31;;;21.58;41.09
52469;BME280;38381;53.688;10.776;2023-05-12T16:13:08;101665.75;;;21.55;41.41
52469;BME280;38381;53.688;10.776;2023-05-12T16:18:09;101673.88;;;21.47;41.04
52469;BME280;38381;53.688;10.776;2023-05-12T16:23:09;101670.44;;;21.44;41.49
52469;BME280;38381;53.688;10.776;2023-05-12T16:28:10;101670.06;;;21.20;41.13
52469;BME280;38381;53.688;10.776;2023-05-12T16:33:11;101675.44;;;21.16;41.64
52469;BME280;38381;53.688;10.776;2023-05-12T16:38:11;101678.72;;;21.27;41.84
52469;BME280;38381;53.688;10.776;2023-05-12T16:43:12;101673.22;;;20.99;40.92
52469;BME280;38381;53.688;10.776;2023-05-12T16:48:13;101669.88;;;20.90;41.48
52469;BME280;38381;53.688;10.776;2023-05-12T16:53:13;101662.13;;;20.83;41.42
52469;BME280;38381;53.688;10.776;2023-05-12T16:58:13;101671.22;;;20.69;41.50
52469;BME280;38381;53.688;10.776;2023-05-12T17:03:14;101674.03;;;20.60;41.54
52469;BME280;38381;53.688;10.776;2023-05-12T17:08:15;101673.59;;;20.37;41.52
52469;BME280;38381;53.688;10.776;2023-05-12T17:13:15;101665.88;;;20.27;42.01
52469;BME280;38381;53.688;10.776;2023-05-12T17:18:16;101666.91;;;20.20;42.51
52469;BME280;38381;53.688;10.776;2023-05-12T17:23:17;101675.81;;;20.13;43.23
52469;BME280;38381;53.688;10.776;2023-05-12T17:28:17;101684.06;;;19.93;44.26
52469;BME280;38381;53.688;10.776;2023-05-12T17:33:18;101685.19;;;19.78;45.26
52469;BME280;38381;53.688;10.776;2023-05-12T17:38:19;101688.78;;;19.74;45.85
52469;BME280;38381;53.688;10.776;2023-05-12T17:43:19;101698.63;;;19.60;46.80
52469;BME280;38381;53.688;10.776;2023-05-12T17:48:21;101704.16;;;19.43;47.49
52469;BME280;38381;53.688;10.776;2023-05-12T17:53:21;101702.63;;;19.28;47.86
52469;BME280;38381;53.688;10.776;2023-05-12T17:58:22;101709.63;;;19.27;48.37
52469;BME280;38381;53.688;10.776;2023-05-12T18:03:23;101709.94;;;19.07;49.33
52469;BME280;38381;53.688;10.776;2023-05-12T18:08:23;101710.97;;;18.94;49.88
52469;BME280;38381;53.688;10.776;2023-05-12T18:13:24;101719.78;;;18.92;50.16
52469;BME280;38381;53.688;10.776;2023-05-12T18:18:24;101712.03;;;18.81;50.89
52469;BME280;38381;53.688;10.776;2023-05-12T18:23:25;101723.47;;;18.74;51.01
52469;BME280;38381;53.688;10.776;2023-05-12T18:28:25;101729.94;;;18.45;52.02
52469;BME280;38381;53.688;10.776;2023-05-12T18:33:26;101742.44;;;18.20;53.27
52469;BME280;38381;53.688;10.776;2023-05-12T18:38:26;101740.84;;;18.03;53.92
52469;BME280;38381;53.688;10.776;2023-05-12T18:43:27;101750.53;;;17.95;54.63
52469;BME280;38381;53.688;10.776;2023-05-12T18:48:27;101748.84;;;17.88;55.03
52469;BME280;38381;53.688;10.776;2023-05-12T18:53:28;101755.94;;;17.72;55.50
52469;BME280;38381;53.688;10.776;2023-05-12T18:58:28;101766.47;;;17.66;56.04
52469;BME280;38381;53.688;10.776;2023-05-12T19:03:29;101772.75;;;17.43;57.16
52469;BME280;38381;53.688;10.776;2023-05-12T19:08:31;101780.69;;;17.29;57.65
52469;BME280;38381;53.688;10.776;2023-05-12T19:13:31;101783.34;;;17.19;57.89
52469;BME280;38381;53.688;10.776;2023-05-12T19:18:32;101793.00;;;17.11;58.62
52469;BME280;38381;53.688;10.776;2023-05-12T19:23:32;101798.25;;;17.07;58.55
52469;BME280;38381;53.688;10.776;2023-05-12T19:28:33;101806.19;;;16.86;59.57
52469;BME280;38381;53.688;10.776;2023-05-12T19:33:33;101807.94;;;16.81;60.05
52469;BME280;38381;53.688;10.776;2023-05-12T19:38:34;101810.56;;;16.68;60.15
52469;BME280;38381;53.688;10.776;2023-05-12T19:43:34;101816.69;;;16.58;60.06
52469;BME280;38381;53.688;10.776;2023-05-12T19:48:35;101821.06;;;16.39;60.26
52469;BME280;38381;53.688;10.776;2023-05-12T19:53:35;101819.34;;;16.31;60.15
52469;BME280;38381;53.688;10.776;2023-05-12T19:58:36;101827.19;;;16.24;59.71
52469;BME280;38381;53.688;10.776;2023-05-12T20:03:36;101823.69;;;16.08;59.97
52469;BME280;38381;53.688;10.776;2023-05-12T20:08:37;101828.94;;;16.04;60.19
52469;BME280;38381;53.688;10.776;2023-05-12T20:13:37;101825.44;;;15.96;60.23
52469;BME280;38381;53.688;10.776;2023-05-12T20:18:38;101834.16;;;15.85;59.97
52469;BME280;38381;53.688;10.776;2023-05-12T20:23:38;101836.75;;;15.78;58.77
52469;BME280;38381;53.688;10.776;2023-05-12T20:28:39;101831.44;;;15.68;57.81
52469;BME280;38381;53.688;10.776;2023-05-12T20:33:40;101837.53;;;15.57;56.27
52469;BME280;38381;53.688;10.776;2023-05-12T20:38:40;101833.13;;;15.46;55.48
52469;BME280;38381;53.688;10.776;2023-05-12T20:43:41;101833.94;;;15.28;55.06
52469;BME280;38381;53.688;10.776;2023-05-12T20:48:41;101838.25;;;15.25;56.30
52469;BME280;38381;53.688;10.776;2023-05-12T20:53:41;101833.88;;;15.12;56.28
52469;BME280;38381;53.688;10.776;2023-05-12T20:58:42;101843.38;;;15.05;56.94
52469;BME280;38381;53.688;10.776;2023-05-12T21:03:42;101843.38;;;14.97;56.18
52469;BME280;38381;53.688;10.776;2023-05-12T21:08:42;101855.47;;;14.83;57.51
52469;BME280;38381;53.688;10.776;2023-05-12T21:13:44;101850.22;;;14.77;57.04
52469;BME280;38381;53.688;10.776;2023-05-12T21:18:46;101863.16;;;14.66;57.60
52469;BME280;38381;53.688;10.776;2023-05-12T21:23:46;101868.25;;;14.54;57.94
52469;BME280;38381;53.688;10.776;2023-05-12T21:28:46;101869.00;;;14.36;58.08
52469;BME280;38381;53.688;10.776;2023-05-12T21:33:47;101866.28;;;14.22;58.78
52469;BME280;38381;53.688;10.776;2023-05-12T21:38:47;101867.03;;;14.12;58.99
52469;BME280;38381;53.688;10.776;2023-05-12T21:43:48;101870.31;;;13.92;59.30
52469;BME280;38381;53.688;10.776;2023-05-12T21:48:48;101866.69;;;13.76;59.64
52469;BME280;38381;53.688;10.776;2023-05-12T21:53:48;101865.66;;;13.63;59.69
52469;BME280;38381;53.688;10.776;2023-05-12T21:58:49;101876.84;;;13.55;60.60
52469;BME280;38381;53.688;10.776;2023-05-12T22:03:49;101871.59;;;13.50;60.93
52469;BME280;38381;53.688;10.776;2023-05-12T22:08:50;101871.41;;;13.36;61.31
52469;BME280;38381;53.688;10.776;2023-05-12T22:13:50;101886.91;;;13.27;61.59
52469;BME280;38381;53.688;10.776;2023-05-12T22:18:51;101891.13;;;13.19;62.90
52469;BME280;38381;53.688;10.776;2023-05-12T22:23:51;101886.66;;;13.08;63.97
52469;BME280;38381;53.688;10.776;2023-05-12T22:28:51;101881.31;;;12.99;65.10
52469;BME280;38381;53.688;10.776;2023-05-12T22:33:52;101894.19;;;12.90;66.09
52469;BME280;38381;53.688;10.776;2023-05-12T22:38:52;101889.75;;;12.83;66.26
52469;BME280;38381;53.688;10.776;2023-05-12T22:43:53;101897.31;;;12.69;66.81
52469;BME280;38381;53.688;10.776;2023-05-12T22:48:53;101902.44;;;12.63;67.33
52469;BME280;38381;53.688;10.776;2023-05-12T22:53:54;101901.34;;;12.50;67.16
52469;BME280;38381;53.688;10.776;2023-05-12T22:58:54;101905.59;;;12.43;67.06
52469;BME280;38381;53.688;10.776;2023-05-12T23:03:54;101906.41;;;12.41;65.86
52469;BME280;38381;53.688;10.776;2023-05-12T23:08:55;101899.31;;;12.32;64.82
52469;BME280;38381;53.688;10.776;2023-05-12T23:13:56;101903.56;;;12.27;65.32
52469;BME280;38381;53.688;10.776;2023-05-12T23:18:56;101905.13;;;12.17;65.56
52469;BME280;38381;53.688;10.776;2023-05-12T23:24:07;101895.41;;;12.07;65.71
52469;BME280;38381;53.688;10.776;2023-05-12T23:29:11;101897.84;;;11.98;66.42
52469;BME280;38381;53.688;10.776;2023-05-12T23:34:12;101901.28;;;11.97;66.54
52469;BME280;38381;53.688;10.776;2023-05-12T23:39:12;101901.19;;;11.92;66.54
52469;BME280;38381;53.688;10.776;2023-05-12T23:44:12;101894.97;;;11.87;67.06
52469;BME280;38381;53.688;10.776;2023-05-12T23:49:13;101899.94;;;11.75;67.07
52469;BME280;38381;53.688;10.776;2023-05-12T23:54:13;101889.38;;;11.65;67.52
52469;BME280;38381;53.688;10.776;2023-05-12T23:59:14;101890.06;;;11.57;68.76
